Time;durP1;ratioP1;P1;durP2;ratioP2;P2;SDS_P1;SDS_P2;PMS_P1;PMS_P2;Temp;Humidity;BMP_temperature;BMP_pressure;BME280_temperature;BME280_humidity;BME280_pressure;Samples;Min_cycle;Max_cycle;Signal;HPM_P1;HPM_P2
2023/06/25 00:01:21;;;;;;;7.80;5.60;;;;;;;27.51;48.18;99408.41;4936600;29;20028;-74
2023/06/25 00:03:47;;;;;;;7.30;6.00;;;;;;;27.50;48.26;99405.84;4936182;29;20115;-74
2023/06/25 00:06:12;;;;;;;9.25;5.90;;;;;;;27.49;48.66;99399.63;4936279;29;20115;-75
2023/06/25 00:08:37;;;;;;;8.00;6.40;;;;;;;27.48;48.24;99411.34;4936440;29;20056;-74
2023/06/25 00:11:03;;;;;;;9.88;6.30;;;;;;;27.48;48.44;99404.16;4935831;29;20110;-76
2023/06/25 00:13:28;;;;;;;9.13;5.88;;;;;;;27.46;48.44;99394.56;4934878;29;20032;-75
2023/06/25 00:15:54;;;;;;;8.82;6.47;;;;;;;27.50;48.92;99404.00;4936111;29;20035;-74
2023/06/25 00:18:19;;;;;;;9.80;5.93;;;;;;;27.53;48.66;99410.91;4935432;29;20035;-75
2023/06/25 00:20:46;;;;;;;8.23;6.22;;;;;;;27.52;49.16;99399.38;4934705;29;20023;-75
2023/06/25 00:23:12;;;;;;;8.23;5.80;;;;;;;27.47;48.31;99398.94;4936174;29;20111;-75
2023/06/25 00:25:38;;;;;;;7.75;5.68;;;;;;;27.45;48.38;99401.72;4935713;29;20028;-75
2023/06/25 00:28:08;;;;;;;7.15;5.45;;;;;;;27.50;48.78;99395.13;4934702;29;20500;-76
2023/06/25 00:30:34;;;;;;;9.02;5.85;;;;;;;27.51;49.04;99397.69;4935722;29;20441;-78
2023/06/25 00:32:59;;;;;;;9.48;5.65;;;;;;;27.52;49.18;99388.66;4935807;29;20062;-76
2023/06/25 00:35:43;;;;;;;9.85;5.80;;;;;;;27.50;48.85;99395.13;4935967;29;20019;-76
2023/06/25 00:38:09;;;;;;;7.43;5.47;;;;;;;27.51;48.79;99394.13;4935783;29;20036;-75
2023/06/25 00:40:34;;;;;;;7.78;5.35;;;;;;;27.46;48.53;99394.56;4935290;29;20038;-74
2023/06/25 00:43:01;;;;;;;8.30;5.95;;;;;;;27.44;48.35;99399.19;4935345;29;20472;-76
2023/06/25 00:45:26;;;;;;;8.05;6.00;;;;;;;27.42;48.36;99395.81;4935525;29;20086;-75
2023/06/25 00:47:53;;;;;;;9.05;5.82;;;;;;;27.41;48.72;99391.44;4935504;29;20039;-75
2023/06/25 00:50:21;;;;;;;7.20;5.57;;;;;;;27.40;48.44;99401.31;4935454;29;20051;-75
2023/06/25 00:52:48;;;;;;;9.32;5.95;;;;;;;27.39;48.66;99393.38;4935036;29;20023;-75
2023/06/25 00:55:14;;;;;;;6.90;5.32;;;;;;;27.38;48.77;99391.69;4935483;29;20055;-76
2023/06/25 00:57:41;;;;;;;7.25;4.90;;;;;;;27.37;48.52;99390.00;4935313;29;20035;-75
2023/06/25 01:00:13;;;;;;;8.30;5.60;;;;;;;27.38;48.46;99389.03;4935423;29;20377;-75
2023/06/25 01:02:46;;;;;;;7.22;5.13;;;;;;;27.40;47.88;99384.41;4935464;29;20036;-74
2023/06/25 01:05:39;;;;;;;9.50;5.07;;;;;;;27.39;47.80;99388.91;4935170;29;20473;-76
2023/06/25 01:08:09;;;;;;;7.60;4.63;;;;;;;27.40;47.84;99387.06;4934919;29;20036;-75
2023/06/25 01:10:35;;;;;;;7.70;5.00;;;;;;;27.39;47.76;99385.34;4935028;29;20030;-74
2023/06/25 01:13:01;;;;;;;7.70;5.10;;;;;;;27.37;47.55;99382.84;4935187;29;20023;-76
2023/06/25 01:15:27;;;;;;;7.75;5.00;;;;;;;27.34;47.56;99381.28;4935213;29;20032;-75
2023/06/25 01:17:53;;;;;;;7.13;5.10;;;;;;;27.32;47.69;99377.88;4934864;29;20087;-75
2023/06/25 01:20:21;;;;;;;7.70;5.28;;;;;;;27.30;47.68;99374.50;4935179;29;20616;-76
2023/06/25 01:22:47;;;;;;;6.35;4.68;;;;;;;27.33;47.58;99378.72;4934820;29;20031;-73
2023/06/25 01:25:13;;;;;;;7.75;5.03;;;;;;;27.30;47.82;99374.50;4934871;29;20036;-74
2023/06/25 01:27:38;;;;;;;7.13;4.82;;;;;;;27.27;47.62;99380.13;4934837;29;20473;-74
2023/06/25 01:30:09;;;;;;;7.60;5.40;;;;;;;27.26;47.75;99378.41;4933982;29;20114;-75
2023/06/25 01:32:35;;;;;;;7.97;5.35;;;;;;;27.26;47.87;99382.94;4934916;29;20071;-75
2023/06/25 01:35:00;;;;;;;9.10;4.82;;;;;;;27.23;48.04;99376.03;4934822;29;20027;-73
2023/06/25 01:37:28;;;;;;;8.95;4.65;;;;;;;27.22;48.03;99374.34;4934588;29;20032;-75
2023/06/25 01:39:55;;;;;;;7.20;4.55;;;;;;;27.22;48.11;99382.38;4935005;29;20028;-74
2023/06/25 01:42:21;;;;;;;8.57;5.50;;;;;;;27.20;48.22;99378.97;4934923;29;20039;-74
2023/06/25 01:44:47;;;;;;;7.15;4.93;;;;;;;27.20;47.91;99378.97;4934738;29;20031;-75
2023/06/25 01:47:13;;;;;;;7.72;4.82;;;;;;;27.16;48.12;99369.53;4934843;29;20032;-77
2023/06/25 01:49:38;;;;;;;7.82;4.47;;;;;;;27.14;48.34;99360.75;4934793;29;20031;-76
2023/06/25 01:52:04;;;;;;;7.25;4.80;;;;;;;27.13;48.29;99372.47;4934566;29;20074;-74
2023/06/25 01:54:30;;;;;;;16.17;5.43;;;;;;;27.10;48.25;99367.41;4934575;29;20059;-73
2023/06/25 01:56:56;;;;;;;7.85;5.30;;;;;;;27.08;48.29;99365.69;4934619;29;20070;-73
2023/06/25 01:59:21;;;;;;;6.50;4.97;;;;;;;27.08;48.46;99357.66;4934736;29;20028;-77
2023/06/25 02:01:47;;;;;;;9.60;4.97;;;;;;;27.07;48.34;99360.50;4933474;29;20027;-76
2023/06/25 02:04:12;;;;;;;6.22;4.53;;;;;;;27.07;48.19;99363.16;4934709;29;20051;-76
2023/06/25 02:06:38;;;;;;;7.03;4.90;;;;;;;27.04;48.52;99358.94;4934450;29;20024;-74
2023/06/25 02:09:03;;;;;;;6.10;4.43;;;;;;;27.03;48.67;99351.84;4933362;29;20036;-74
2023/06/25 02:11:28;;;;;;;7.43;4.60;;;;;;;27.04;48.57;99345.53;4934629;29;20038;-75
2023/06/25 02:13:54;;;;;;;7.72;4.45;;;;;;;27.04;48.37;99350.91;4934672;29;20531;-74
2023/06/25 02:16:19;;;;;;;6.57;4.60;;;;;;;27.04;48.27;99350.91;4933238;29;20036;-75
2023/06/25 02:18:45;;;;;;;7.20;5.20;;;;;;;27.02;48.27;99343.97;4934452;29;20111;-74
2023/06/25 02:21:10;;;;;;;7.00;4.60;;;;;;;26.99;48.20;99347.78;4934200;29;20107;-74
2023/06/25 02:23:35;;;;;;;6.25;4.55;;;;;;;27.00;48.16;99346.78;4934564;29;20035;-74
2023/06/25 02:26:01;;;;;;;6.80;4.55;;;;;;;27.01;48.52;99343.13;4934566;29;20035;-74
2023/06/25 02:28:27;;;;;;;7.32;4.53;;;;;;;27.00;48.33;99346.78;4934502;29;20040;-75
2023/06/25 02:30:52;;;;;;;6.47;4.85;;;;;;;26.98;48.13;99342.53;4934327;29;20419;-75
2023/06/25 02:33:17;;;;;;;6.47;4.65;;;;;;;26.97;48.60;99341.69;4934413;29;20361;-74
2023/06/25 02:35:43;;;;;;;7.28;5.07;;;;;;;26.97;48.26;99341.69;4933903;29;20028;-74
2023/06/25 02:38:08;;;;;;;8.30;5.22;;;;;;;26.97;48.77;99328.31;4934344;29;20066;-76
2023/06/25 02:40:35;;;;;;;6.68;5.00;;;;;;;26.96;48.69;99331.97;4935570;29;20062;-75
2023/06/25 02:43:01;;;;;;;6.63;4.78;;;;;;;26.98;48.43;99331.84;4936534;29;20035;-76
2023/06/25 02:45:26;;;;;;;6.97;4.90;;;;;;;26.97;48.43;99332.81;4937678;29;20039;-76
2023/06/25 02:47:51;;;;;;;8.18;5.53;;;;;;;26.96;48.68;99340.00;4937723;29;20031;-74
2023/06/25 02:50:17;;;;;;;6.47;4.90;;;;;;;26.95;48.85;99343.66;4937276;29;20035;-76
2023/06/25 02:52:43;;;;;;;5.38;4.07;;;;;;;26.95;49.05;99341.00;4937436;29;20099;-74
2023/06/25 02:55:09;;;;;;;7.03;4.97;;;;;;;26.96;48.78;99331.97;4937600;29;20043;-75
2023/06/25 02:57:34;;;;;;;6.40;4.75;;;;;;;26.95;48.63;99332.94;4937487;29;20042;-74
2023/06/25 03:00:00;;;;;;;6.20;4.57;;;;;;;26.94;48.94;99341.97;4937672;29;20023;-74
2023/06/25 03:02:26;;;;;;;7.93;5.03;;;;;;;26.95;48.75;99349.03;4937519;29;20492;-75
2023/06/25 03:04:51;;;;;;;7.28;4.80;;;;;;;26.95;48.91;99346.34;4937058;29;20060;-74
2023/06/25 03:07:17;;;;;;;8.50;5.20;;;;;;;26.96;48.98;99342.69;4937344;29;20039;-76
2023/06/25 03:09:43;;;;;;;8.88;4.57;;;;;;;26.93;48.75;99334.94;4937075;29;20035;-74
2023/06/25 03:12:09;;;;;;;6.53;4.63;;;;;;;26.91;48.97;99337.75;4937378;29;20067;-74
2023/06/25 03:14:36;;;;;;;7.38;5.13;;;;;;;26.91;49.20;99336.84;4937202;29;20038;-74
2023/06/25 03:17:02;;;;;;;7.75;5.35;;;;;;;26.92;49.21;99343.94;4936943;29;20119;-75
2023/06/25 03:19:28;;;;;;;7.50;4.85;;;;;;;26.92;48.97;99343.94;4936720;29;20039;-74
2023/06/25 03:21:53;;;;;;;7.53;4.88;;;;;;;26.91;49.06;99336.84;4937054;29;20027;-77
2023/06/25 03:24:19;;;;;;;7.18;4.70;;;;;;;26.89;49.28;99338.81;4937095;29;20032;-76
2023/06/25 03:26:44;;;;;;;7.43;5.10;;;;;;;26.89;49.53;99346.84;4937283;29;20039;-75
2023/06/25 03:29:09;;;;;;;8.23;5.00;;;;;;;26.90;49.55;99345.88;4936677;29;20055;-75
2023/06/25 03:31:35;;;;;;;7.78;5.10;;;;;;;26.89;49.43;99344.19;4936724;29;20098;-75
2023/06/25 03:34:00;;;;;;;6.95;5.10;;;;;;;26.87;49.41;99346.16;4936578;29;20024;-73
2023/06/25 03:36:26;;;;;;;8.82;5.00;;;;;;;26.88;49.22;99345.16;4936839;29;20568;-74
2023/06/25 03:38:51;;;;;;;6.80;4.53;;;;;;;26.86;49.34;99347.09;4936794;29;20035;-77
2023/06/25 03:41:16;;;;;;;7.45;5.07;;;;;;;26.86;49.52;99349.78;4935558;29;20058;-76
2023/06/25 03:43:42;;;;;;;7.03;5.18;;;;;;;26.84;49.26;99354.44;4935363;29;20032;-75
2023/06/25 03:46:07;;;;;;;7.63;5.05;;;;;;;26.85;49.53;99354.31;4935504;29;20539;-76
2023/06/25 03:48:33;;;;;;;7.55;4.97;;;;;;;26.83;49.19;99355.44;4936265;29;20039;-75
2023/06/25 03:50:58;;;;;;;8.00;4.75;;;;;;;26.81;49.56;99361.75;4936583;29;20040;-74
2023/06/25 03:53:26;;;;;;;6.95;4.88;;;;;;;26.83;49.32;99366.13;4935738;29;20032;-75
2023/06/25 03:55:52;;;;;;;6.80;4.80;;;;;;;26.81;49.37;99364.44;4935056;29;20118;-76
2023/06/25 03:58:18;;;;;;;7.35;5.18;;;;;;;26.83;49.59;99366.13;4936349;29;20122;-75
2023/06/25 04:00:44;;;;;;;6.72;4.90;;;;;;;26.81;49.58;99368.94;4936411;29;20024;-74
2023/06/25 04:03:10;;;;;;;8.02;5.45;;;;;;;26.80;49.50;99367.25;4935939;29;20038;-75
2023/06/25 04:05:35;;;;;;;8.63;5.03;;;;;;;26.81;49.31;99369.78;4936226;29;20028;-75
2023/06/25 04:08:01;;;;;;;9.23;5.78;;;;;;;26.81;49.29;99368.94;4936169;29;20059;-74
2023/06/25 04:10:26;;;;;;;7.47;5.22;;;;;;;26.79;49.55;99371.75;4935675;29;20054;-75
2023/06/25 04:12:52;;;;;;;6.85;4.55;;;;;;;26.78;49.56;99372.72;4936184;29;20024;-77
2023/06/25 04:15:17;;;;;;;8.27;4.90;;;;;;;26.78;49.70;99375.41;4936290;29;20024;-76
2023/06/25 04:17:42;;;;;;;6.97;4.47;;;;;;;26.77;49.39;99373.72;4935722;29;20532;-75
2023/06/25 04:20:08;;;;;;;6.57;4.85;;;;;;;26.74;49.52;99374.00;4935991;29;20559;-74
2023/06/25 04:22:34;;;;;;;8.48;5.18;;;;;;;26.72;49.78;99378.63;4936070;29;20028;-74
2023/06/25 04:25:00;;;;;;;7.53;5.25;;;;;;;26.74;49.67;99379.34;4935925;29;20083;-73
2023/06/25 04:27:25;;;;;;;7.85;5.40;;;;;;;26.73;49.61;99377.63;4936176;29;20023;-75
2023/06/25 04:29:50;;;;;;;8.73;5.28;;;;;;;26.73;49.50;99374.94;4935600;29;20039;-74
2023/06/25 04:32:16;;;;;;;7.22;4.75;;;;;;;26.74;49.58;99379.34;4934281;29;20111;-75
2023/06/25 04:34:42;;;;;;;7.53;5.00;;;;;;;26.73;49.65;99376.81;4935502;29;20095;-74
2023/06/25 04:37:07;;;;;;;7.03;4.78;;;;;;;26.74;49.55;99378.50;4935844;29;20036;-75
2023/06/25 04:39:32;;;;;;;8.13;5.20;;;;;;;26.73;49.80;99382.16;4935620;29;20473;-75
2023/06/25 04:41:58;;;;;;;6.88;4.80;;;;;;;26.71;49.64;99379.59;4935787;29;20039;-75
2023/06/25 04:44:25;;;;;;;7.78;5.45;;;;;;;26.69;49.80;99373.53;4935611;29;20043;-75
2023/06/25 04:46:50;;;;;;;6.95;4.75;;;;;;;26.70;49.80;99382.41;4933905;29;20035;-74
2023/06/25 04:49:15;;;;;;;6.57;4.53;;;;;;;26.71;49.55;99384.97;4935532;29;20404;-76
2023/06/25 04:51:45;;;;;;;6.40;4.68;;;;;;;26.68;49.72;99390.56;4935675;29;20036;-75
2023/06/25 04:54:10;;;;;;;6.38;4.82;;;;;;;26.68;49.74;99382.53;4935393;29;20024;-76
2023/06/25 04:56:36;;;;;;;8.10;4.82;;;;;;;26.68;49.56;99390.56;4935276;29;20031;-74
2023/06/25 04:59:01;;;;;;;8.43;5.20;;;;;;;26.67;49.93;99383.50;4935031;29;20035;-74
2023/06/25 05:01:27;;;;;;;8.43;5.32;;;;;;;26.66;49.96;99389.84;4935123;29;20035;-75
2023/06/25 05:03:52;;;;;;;7.18;5.03;;;;;;;26.65;49.87;99391.69;4935052;29;20175;-75
2023/06/25 05:06:17;;;;;;;6.28;4.80;;;;;;;26.64;49.97;99389.97;4935411;29;20031;-76
2023/06/25 05:08:43;;;;;;;8.15;5.07;;;;;;;26.65;49.98;99393.53;4935158;29;20051;-74
2023/06/25 05:11:08;;;;;;;7.68;5.10;;;;;;;26.66;49.78;99400.56;4935173;29;20675;-74
2023/06/25 05:13:35;;;;;;;7.00;5.05;;;;;;;26.65;49.85;99407.75;4935154;29;20198;-74
2023/06/25 05:16:01;;;;;;;6.68;5.28;;;;;;;26.65;49.79;99398.88;4934569;29;20485;-73
2023/06/25 05:18:26;;;;;;;6.47;4.28;;;;;;;26.65;50.09;99410.44;4935041;29;20030;-74
2023/06/25 05:20:51;;;;;;;7.00;4.55;;;;;;;26.65;50.17;99406.91;4935027;29;20106;-74
2023/06/25 05:23:17;;;;;;;7.72;4.55;;;;;;;26.65;50.14;99409.56;4935044;29;20038;-74
2023/06/25 05:25:42;;;;;;;6.53;4.70;;;;;;;26.67;49.95;99421.84;4935110;29;20032;-74
2023/06/25 05:28:08;;;;;;;7.38;4.95;;;;;;;26.66;50.22;99425.50;4934888;29;20044;-76
2023/06/25 05:30:33;;;;;;;6.95;4.75;;;;;;;26.64;50.09;99424.78;4934501;29;20048;-75
2023/06/25 05:32:59;;;;;;;7.22;4.97;;;;;;;26.66;50.32;99424.66;4934819;29;20020;-76
2023/06/25 05:35:26;;;;;;;7.18;4.75;;;;;;;26.63;50.41;99430.28;4934991;29;20412;-76
2023/06/25 05:37:52;;;;;;;8.75;5.10;;;;;;;26.63;50.11;99430.28;4934984;29;20031;-74
2023/06/25 05:40:17;;;;;;;5.43;4.40;;;;;;;26.63;50.42;99428.44;4933504;29;20429;-75
2023/06/25 05:42:44;;;;;;;7.32;4.75;;;;;;;26.64;50.55;99430.13;4933302;29;20058;-76
2023/06/25 05:45:10;;;;;;;10.15;5.18;;;;;;;26.63;50.23;99431.09;4933938;29;20023;-75
2023/06/25 05:47:35;;;;;;;6.82;5.18;;;;;;;26.63;50.43;99439.13;4934808;29;20051;-75
2023/06/25 05:50:00;;;;;;;5.53;3.95;;;;;;;26.63;50.23;99440.97;4934512;29;20062;-75
2023/06/25 05:52:26;;;;;;;6.55;4.78;;;;;;;26.64;50.54;99448.03;4934440;29;20036;-75
2023/06/25 05:54:52;;;;;;;9.18;4.78;;;;;;;26.64;50.50;99442.69;4934716;29;20055;-75
2023/06/25 05:57:18;;;;;;;8.82;5.43;;;;;;;26.63;50.23;99441.81;4934218;29;20040;-76
2023/06/25 05:59:43;;;;;;;6.72;4.78;;;;;;;26.63;50.47;99431.09;4934585;29;20110;-74
2023/06/25 06:02:09;;;;;;;7.05;4.75;;;;;;;26.62;50.16;99437.44;4934608;29;20059;-73
2023/06/25 06:04:35;;;;;;;6.75;5.03;;;;;;;26.62;50.60;99428.56;4934038;29;20023;-73
2023/06/25 06:07:00;;;;;;;7.13;5.15;;;;;;;26.61;50.65;99434.91;4934638;29;20385;-75
2023/06/25 06:09:26;;;;;;;8.50;5.63;;;;;;;26.62;50.34;99439.25;4934624;29;20032;-75
2023/06/25 06:11:51;;;;;;;10.20;6.35;;;;;;;26.60;50.55;99446.59;4933045;29;20548;-74
2023/06/25 06:14:17;;;;;;;17.13;8.55;;;;;;;26.59;50.48;99440.41;4934014;29;20110;-74
2023/06/25 06:16:42;;;;;;;12.18;6.82;;;;;;;26.60;50.42;99441.22;4937646;29;20111;-75
2023/06/25 06:19:08;;;;;;;11.85;7.20;;;;;;;26.61;50.62;99446.47;4938123;29;20091;-74
2023/06/25 06:21:33;;;;;;;10.38;5.95;;;;;;;26.62;50.34;99445.47;4938341;29;20035;-75
2023/06/25 06:23:59;;;;;;;9.05;5.78;;;;;;;26.62;50.55;99449.97;4938047;29;20493;-74
2023/06/25 06:26:24;;;;;;;8.82;5.05;;;;;;;26.62;50.88;99449.97;4937981;29;20035;-75
2023/06/25 06:28:50;;;;;;;6.45;4.50;;;;;;;26.63;50.80;99451.69;4937898;29;20062;-73
2023/06/25 06:31:16;;;;;;;6.72;4.45;;;;;;;26.62;50.66;99455.31;4938060;29;20087;-74
2023/06/25 06:33:42;;;;;;;6.50;5.10;;;;;;;26.64;50.59;99459.56;4937790;29;20063;-76
2023/06/25 06:36:08;;;;;;;7.88;4.57;;;;;;;26.65;50.58;99457.75;4937709;29;20074;-74
2023/06/25 06:38:33;;;;;;;7.30;4.80;;;;;;;26.64;50.97;99458.72;4938029;29;20106;-75
2023/06/25 06:40:59;;;;;;;7.18;4.80;;;;;;;26.63;50.95;99462.38;4937632;29;20016;-74
2023/06/25 06:43:24;;;;;;;7.15;5.07;;;;;;;26.65;50.81;99460.41;4937931;29;20027;-76
2023/06/25 06:45:50;;;;;;;5.90;4.43;;;;;;;26.68;50.84;99465.50;4937795;29;20074;-74
2023/06/25 06:48:15;;;;;;;6.65;4.93;;;;;;;26.68;50.75;99461.00;4937631;29;20027;-74
2023/06/25 06:50:40;;;;;;;6.70;4.43;;;;;;;26.70;50.37;99458.22;4937770;29;20031;-74
2023/06/25 06:53:06;;;;;;;6.45;4.57;;;;;;;26.69;50.37;99461.88;4937666;29;20020;-74
2023/06/25 06:55:32;;;;;;;6.40;4.55;;;;;;;26.66;50.94;99467.47;4937026;29;20047;-75
2023/06/25 06:57:58;;;;;;;5.80;4.45;;;;;;;26.68;50.70;99473.53;4937596;29;20035;-75
2023/06/25 07:00:23;;;;;;;7.18;4.90;;;;;;;26.70;50.72;99473.41;4937480;29;20023;-74
2023/06/25 07:02:48;;;;;;;7.47;4.72;;;;;;;26.70;51.00;99478.75;4937470;29;20047;-75
2023/06/25 07:05:14;;;;;;;6.32;5.03;;;;;;;26.68;51.09;99468.16;4937523;29;20485;-73
2023/06/25 07:07:41;;;;;;;6.70;4.65;;;;;;;26.69;51.05;99469.91;4937386;29;20508;-74
2023/06/25 07:10:06;;;;;;;7.68;5.13;;;;;;;26.70;50.84;99468.91;4937109;29;20098;-75
2023/06/25 07:12:32;;;;;;;8.73;5.43;;;;;;;26.71;51.03;99475.94;4937373;29;20396;-75
2023/06/25 07:14:57;;;;;;;5.97;4.50;;;;;;;26.71;50.92;99475.94;4937222;29;20439;-73
2023/06/25 07:17:24;;;;;;;6.05;4.47;;;;;;;26.73;50.65;99473.16;4937220;29;20433;-76
2023/06/25 07:19:49;;;;;;;6.97;4.75;;;;;;;26.72;50.58;99472.28;4936995;29;20043;-78
2023/06/25 07:22:15;;;;;;;5.82;4.20;;;;;;;26.72;50.60;99466.09;4937105;29;20035;-76
2023/06/25 07:24:40;;;;;;;6.25;4.38;;;;;;;26.75;50.73;99471.19;4936873;29;20027;-74
2023/06/25 07:27:06;;;;;;;5.82;4.30;;;;;;;26.75;50.48;99479.22;4934621;29;20024;-74
2023/06/25 07:29:31;;;;;;;5.53;4.43;;;;;;;26.74;50.50;99481.06;4936740;29;20563;-75
2023/06/25 07:31:57;;;;;;;5.75;4.63;;;;;;;26.77;50.58;99479.91;4937013;29;20035;-74
2023/06/25 07:34:22;;;;;;;7.43;4.55;;;;;;;26.75;50.61;99479.22;4936874;29;20552;-75
2023/06/25 07:36:48;;;;;;;6.45;5.15;;;;;;;26.75;50.91;99482.75;4936827;29;20027;-76
2023/06/25 07:39:24;;;;;;;7.22;4.82;;;;;;;26.76;50.78;99484.44;4936453;29;20031;-75
2023/06/25 07:41:50;;;;;;;6.53;4.85;;;;;;;26.79;50.74;99483.34;4936893;29;20489;-76
2023/06/25 07:44:15;;;;;;;8.50;5.25;;;;;;;26.78;50.76;99482.47;4936668;29;20055;-77
2023/06/25 07:46:41;;;;;;;8.05;5.00;;;;;;;26.78;50.43;99487.81;4936622;29;20020;-75
2023/06/25 07:49:07;;;;;;;7.10;4.68;;;;;;;26.79;50.45;99489.50;4936554;29;20111;-75
2023/06/25 07:51:32;;;;;;;7.18;4.90;;;;;;;26.84;50.46;99490.97;4936528;29;20103;-75
2023/06/25 07:53:57;;;;;;;6.60;4.85;;;;;;;26.86;50.75;99497.03;4936229;29;20027;-74
2023/06/25 07:56:23;;;;;;;6.53;4.25;;;;;;;26.88;50.75;99497.75;4936640;29;20028;-74
2023/06/25 07:58:48;;;;;;;6.32;4.55;;;;;;;26.91;50.70;99502.84;4936324;29;20075;-75
2023/06/25 08:01:13;;;;;;;6.65;4.65;;;;;;;26.92;50.22;99502.75;4936523;29;20503;-75
2023/06/25 08:03:39;;;;;;;7.18;4.70;;;;;;;26.93;50.21;99501.75;4936211;29;20023;-73
2023/06/25 08:06:04;;;;;;;6.53;4.47;;;;;;;26.95;50.21;99509.66;4927247;29;20103;-76
2023/06/25 08:08:30;;;;;;;5.63;3.90;;;;;;;26.97;50.28;99505.00;4919624;29;20028;-74
2023/06/25 08:10:55;;;;;;;6.15;4.53;;;;;;;26.99;50.21;99511.09;4936199;29;20115;-75
2023/06/25 08:13:21;;;;;;;5.88;4.40;;;;;;;27.00;50.11;99502.09;4919138;29;20055;-74
2023/06/25 08:15:47;;;;;;;6.22;4.43;;;;;;;27.01;50.15;99503.78;4935770;29;20019;-73
2023/06/25 08:18:12;;;;;;;5.65;3.90;;;;;;;27.02;50.44;99502.78;4940413;29;20054;-76
2023/06/25 08:20:38;;;;;;;6.15;4.53;;;;;;;27.05;50.20;99499.88;4938718;29;20042;-73
2023/06/25 08:23:03;;;;;;;6.35;4.50;;;;;;;27.07;50.38;99489.84;4936266;28;20050;-74
2023/06/25 08:25:31;;;;;;;5.82;4.20;;;;;;;27.10;50.17;99498.63;4931379;29;20409;-74
2023/06/25 08:27:56;;;;;;;5.40;4.15;;;;;;;27.12;50.08;99499.31;4916865;29;20043;-75
2023/06/25 08:30:22;;;;;;;7.55;4.47;;;;;;;27.14;50.31;99497.34;4929984;29;20048;-74
2023/06/25 08:32:47;;;;;;;5.45;4.00;;;;;;;27.15;50.04;99499.03;4935392;29;20404;-76
2023/06/25 08:35:13;;;;;;;6.28;4.40;;;;;;;27.16;50.48;99500.78;4952609;29;20027;-74
2023/06/25 08:37:38;;;;;;;6.07;4.60;;;;;;;27.17;50.09;99502.47;4954074;28;20031;-74
2023/06/25 08:40:04;;;;;;;5.70;4.45;;;;;;;27.19;50.16;99500.47;4939991;29;20028;-77
2023/06/25 08:42:31;;;;;;;6.30;4.60;;;;;;;27.20;50.57;99508.41;4935595;28;20032;-76
2023/06/25 08:44:57;;;;;;;6.07;4.15;;;;;;;27.21;50.37;99503.88;4935321;29;20031;-74
2023/06/25 08:47:27;;;;;;;5.82;4.47;;;;;;;27.21;50.38;99499.38;4935642;29;20036;-75
2023/06/25 08:49:54;;;;;;;6.63;4.68;;;;;;;27.24;50.60;99498.25;4935374;29;20023;-75
2023/06/25 08:52:23;;;;;;;5.50;4.00;;;;;;;27.25;50.10;99491.91;4935004;29;20115;-75
2023/06/25 08:54:49;;;;;;;6.35;4.65;;;;;;;27.26;50.08;99498.97;4917919;29;20042;-74
2023/06/25 08:57:15;;;;;;;6.45;4.53;;;;;;;27.26;50.22;99498.97;4935151;29;20032;-75
2023/06/25 08:59:41;;;;;;;5.78;4.43;;;;;;;27.28;50.09;99497.03;4935321;29;20119;-74
2023/06/25 09:02:06;;;;;;;6.78;4.82;;;;;;;27.29;50.03;99506.75;4935229;29;20059;-73
2023/06/25 09:04:31;;;;;;;5.82;4.28;;;;;;;27.29;50.07;99512.09;4935327;29;20023;-75
2023/06/25 09:07:07;;;;;;;7.97;5.47;;;;;;;27.31;50.12;99507.44;4934752;29;20095;-74
2023/06/25 09:09:33;;;;;;;6.05;4.57;;;;;;;27.32;50.40;99517.19;4935121;29;20047;-75
2023/06/25 09:11:58;;;;;;;6.57;4.97;;;;;;;27.32;50.20;99511.81;4935137;29;20059;-76
2023/06/25 09:14:23;;;;;;;6.22;4.40;;;;;;;27.36;50.32;99522.28;4935088;29;20024;-75
2023/06/25 09:16:50;;;;;;;7.22;4.43;;;;;;;27.36;50.10;99514.25;4935025;29;20043;-76
2023/06/25 09:19:20;;;;;;;6.05;4.55;;;;;;;27.38;50.02;99509.59;4934856;29;20039;-75
2023/06/25 09:21:46;;;;;;;7.10;4.80;;;;;;;27.39;50.08;99516.63;4934804;29;20032;-75
2023/06/25 09:24:19;;;;;;;6.60;4.55;;;;;;;27.41;49.92;99515.53;4935504;29;20035;-75
2023/06/25 09:26:49;;;;;;;6.45;4.25;;;;;;;27.42;50.32;99527.97;4935037;29;20528;-74
2023/06/25 09:29:16;;;;;;;7.95;4.70;;;;;;;27.45;49.91;99529.53;4934935;29;20059;-74
2023/06/25 09:31:42;;;;;;;7.00;4.75;;;;;;;27.45;49.68;99526.84;4934823;29;20032;-75
2023/06/25 09:34:09;;;;;;;6.35;4.97;;;;;;;27.46;50.10;99533.91;4934750;29;20055;-76
2023/06/25 09:36:35;;;;;;;6.72;4.72;;;;;;;27.48;50.09;99537.28;4934631;29;20032;-76
2023/06/25 09:39:02;;;;;;;6.43;4.72;;;;;;;27.50;49.85;99529.09;4934650;29;20035;-75
2023/06/25 09:41:28;;;;;;;5.70;4.28;;;;;;;27.52;49.82;99532.50;4934745;29;20024;-74
2023/06/25 09:43:56;;;;;;;6.65;4.85;;;;;;;27.54;49.82;99535.88;4934797;29;20552;-75
2023/06/25 09:46:22;;;;;;;8.20;4.57;;;;;;;27.55;50.17;99533.06;4934444;29;20027;-75
2023/06/25 09:48:48;;;;;;;5.90;4.22;;;;;;;27.56;50.05;99534.75;4934589;29;20044;-77
2023/06/25 09:51:15;;;;;;;6.05;4.68;;;;;;;27.60;49.85;99538.06;4936773;29;20032;-77
2023/06/25 09:53:43;;;;;;;6.20;4.50;;;;;;;27.60;50.27;99536.22;4938487;29;20039;-75
2023/06/25 09:56:11;;;;;;;7.35;4.45;;;;;;;27.63;50.25;99539.59;4938297;29;20060;-75
2023/06/25 09:58:36;;;;;;;6.78;4.50;;;;;;;27.64;50.06;99536.78;4937963;29;20055;-76
2023/06/25 10:01:02;;;;;;;6.40;4.57;;;;;;;27.67;50.36;99541.03;4943601;29;20124;-76
2023/06/25 10:03:29;;;;;;;7.45;5.05;;;;;;;27.68;50.10;99537.38;4946017;29;20247;-75
2023/06/25 10:05:54;;;;;;;6.25;4.50;;;;;;;27.71;50.18;99542.47;4934977;29;20030;-76
2023/06/25 10:08:20;;;;;;;6.50;4.57;;;;;;;27.71;50.51;99537.13;4943311;29;20119;-76
2023/06/25 10:11:04;;;;;;;6.13;4.03;;;;;;;27.74;50.57;99534.16;4937936;29;20502;-74
2023/06/25 10:13:29;;;;;;;6.55;4.85;;;;;;;27.76;50.39;99532.19;4933393;29;20087;-76
2023/06/25 10:16:04;;;;;;;7.25;4.70;;;;;;;27.79;50.22;99534.59;4937841;29;20455;-74
2023/06/25 10:18:30;;;;;;;8.82;4.82;;;;;;;27.80;50.16;99536.28;4956834;29;20027;-76
2023/06/25 10:21:01;;;;;;;7.03;4.28;;;;;;;27.82;50.26;99534.31;4939339;29;20034;-75
2023/06/25 10:23:29;;;;;;;6.38;4.60;;;;;;;27.84;50.07;99532.34;4950429;29;20034;-73
2023/06/25 10:25:57;;;;;;;6.60;4.80;;;;;;;27.86;50.21;99537.56;4937842;29;20030;-74
2023/06/25 10:28:32;;;;;;;6.28;4.35;;;;;;;27.85;49.77;99531.34;4937910;29;20046;-76
2023/06/25 10:30:59;;;;;;;6.60;4.85;;;;;;;27.86;49.60;99535.75;4937711;29;20043;-74
2023/06/25 10:33:29;;;;;;;6.50;4.55;;;;;;;27.88;49.76;99533.78;4937471;29;20036;-74
2023/06/25 10:35:55;;;;;;;7.25;4.95;;;;;;;27.89;50.24;99539.97;4937628;29;20047;-75
2023/06/25 10:38:21;;;;;;;6.20;4.78;;;;;;;27.92;49.90;99538.84;4937600;29;20457;-74
2023/06/25 10:40:47;;;;;;;6.30;4.70;;;;;;;27.92;49.84;99530.81;4937344;29;20495;-75
2023/06/25 10:43:20;;;;;;;6.97;4.70;;;;;;;27.94;49.70;99534.22;4931160;29;20028;-75
2023/06/25 10:45:56;;;;;;;6.28;4.55;;;;;;;27.93;49.96;99536.03;4941173;29;20041;-74
2023/06/25 10:48:23;;;;;;;7.28;5.65;;;;;;;27.95;49.76;99538.59;4938623;29;20023;-74
2023/06/25 10:50:51;;;;;;;6.57;4.43;;;;;;;27.96;49.97;99535.78;4937007;29;20035;-75
2023/06/25 10:53:19;;;;;;;7.47;5.18;;;;;;;27.97;49.94;99531.25;4937246;29;20035;-74
2023/06/25 10:55:52;;;;;;;8.32;5.75;;;;;;;27.97;49.54;99533.91;4937263;29;20034;-76
2023/06/25 10:58:23;;;;;;;7.40;5.63;;;;;;;27.98;49.40;99527.56;4937214;29;20042;-76
2023/06/25 11:00:55;;;;;;;8.60;4.80;;;;;;;27.99;49.58;99530.13;4937006;29;20087;-76
2023/06/25 11:03:24;;;;;;;6.32;4.70;;;;;;;28.01;49.60;99527.31;4955224;29;20495;-76
2023/06/25 11:05:50;;;;;;;6.03;4.57;;;;;;;28.03;49.85;99525.31;4944536;29;20484;-75
2023/06/25 11:08:15;;;;;;;6.32;4.65;;;;;;;28.04;49.89;99527.03;4936853;29;20047;-75
2023/06/25 11:10:43;;;;;;;6.05;4.40;;;;;;;28.06;49.79;99535.78;4951925;29;20055;-75
2023/06/25 11:13:10;;;;;;;5.82;4.43;;;;;;;28.09;50.11;99535.50;4937068;29;20038;-75
2023/06/25 11:15:36;;;;;;;6.15;4.60;;;;;;;28.11;50.05;99533.53;4936990;29;20056;-76
2023/06/25 11:18:03;;;;;;;5.68;4.28;;;;;;;28.13;49.74;99536.09;4936949;29;20035;-74
2023/06/25 11:20:29;;;;;;;5.25;4.28;;;;;;;28.14;49.69;99538.63;4947362;29;20492;-75
2023/06/25 11:23:04;;;;;;;6.65;4.50;;;;;;;28.15;49.72;99537.63;4936712;29;20087;-74
2023/06/25 11:25:30;;;;;;;6.67;4.50;;;;;;;28.17;50.20;99536.66;4936989;29;20024;-75
2023/06/25 11:28:05;;;;;;;5.50;3.97;;;;;;;28.18;50.13;99532.97;4936782;29;20295;-74
2023/06/25 11:30:31;;;;;;;6.63;4.25;;;;;;;28.21;50.20;99532.69;4936632;29;20059;-75